createdAt,value
2018-05-03T00:01:09.275Z,930.33
2018-05-03T00:02:41.140Z,930.28
2018-05-03T00:04:12.901Z,930.30
2018-05-03T00:05:44.810Z,930.33
2018-05-03T00:07:16.530Z,930.29
2018-05-03T00:08:48.343Z,930.33
2018-05-03T00:10:20.258Z,930.35
2018-05-03T00:11:51.971Z,930.35
2018-05-03T00:13:23.786Z,930.37
2018-05-03T00:14:55.600Z,930.42
2018-05-03T00:16:27.414Z,930.37
2018-05-03T00:17:59.229Z,930.41
2018-05-03T00:19:31.044Z,930.41
2018-05-03T00:21:02.859Z,930.43
2018-05-03T00:22:34.673Z,930.39
2018-05-03T00:24:06.487Z,930.40
2018-05-03T00:25:38.303Z,930.46
2018-05-03T00:27:10.116Z,930.39
2018-05-03T00:28:42.048Z,930.45
2018-05-03T00:30:13.745Z,930.42
2018-05-03T00:31:45.558Z,930.45
2018-05-03T00:33:17.373Z,930.40
2018-05-03T00:34:49.186Z,930.41
2018-05-03T00:36:21.000Z,930.40
2018-05-03T00:37:52.814Z,930.42
2018-05-03T00:39:24.629Z,930.45
2018-05-03T00:40:56.441Z,930.41
2018-05-03T00:42:28.294Z,930.35
2018-05-03T00:44:00.068Z,930.40
2018-05-03T00:45:31.889Z,930.39
2018-05-03T00:47:03.797Z,930.37
2018-05-03T00:48:35.510Z,930.35
2018-05-03T00:50:07.324Z,930.32
2018-05-03T00:51:39.137Z,930.35
2018-05-03T00:53:10.952Z,930.36
2018-05-03T00:54:42.765Z,930.35
2018-05-03T00:56:14.580Z,930.37
2018-05-03T00:57:46.393Z,930.37
2018-05-03T00:59:18.358Z,930.26
2018-05-03T01:00:50.022Z,930.38
2018-05-03T01:02:21.836Z,930.32
2018-05-03T01:03:53.651Z,930.37
2018-05-03T01:05:25.564Z,930.38
2018-05-03T01:06:57.304Z,930.32
2018-05-03T01:08:29.301Z,930.32
2018-05-03T01:10:00.907Z,930.29
2018-05-03T01:11:32.720Z,930.32
2018-05-03T01:13:04.634Z,930.34
2018-05-03T01:14:36.352Z,930.29
2018-05-03T01:16:08.162Z,930.27
2018-05-03T01:17:39.976Z,930.29
2018-05-03T01:19:11.791Z,930.28
2018-05-03T01:20:43.605Z,930.25
2018-05-03T01:22:15.423Z,930.28
2018-05-03T01:23:47.333Z,930.27
2018-05-03T01:25:19.049Z,930.30
2018-05-03T01:26:50.871Z,930.29
2018-05-03T01:28:22.676Z,930.21
2018-05-03T01:29:54.592Z,930.20
2018-05-03T01:31:26.305Z,930.19
2018-05-03T01:32:58.121Z,930.23
2018-05-03T01:34:29.935Z,930.21
2018-05-03T01:36:01.753Z,930.23
2018-05-03T01:37:33.563Z,930.20
2018-05-03T01:39:05.378Z,930.28
2018-05-03T01:40:37.193Z,930.26
2018-05-03T01:42:09.207Z,930.23
2018-05-03T01:43:40.822Z,930.22
2018-05-03T01:45:12.636Z,930.20
2018-05-03T01:46:44.450Z,930.19
2018-05-03T01:48:16.265Z,930.18
2018-05-03T01:49:48.079Z,930.21
2018-05-03T01:51:19.894Z,930.16
2018-05-03T01:52:51.708Z,930.13
2018-05-03T01:54:23.523Z,930.12
2018-05-03T01:55:55.337Z,930.08
2018-05-03T01:57:27.151Z,930.03
2018-05-03T01:58:58.966Z,930.06
2018-05-03T02:00:30.879Z,930.05
2018-05-03T02:02:02.594Z,929.99
2018-05-03T02:03:34.408Z,929.96
2018-05-03T02:05:06.222Z,929.93
2018-05-03T02:06:38.066Z,929.92
2018-05-03T02:08:09.851Z,929.95
2018-05-03T02:09:41.665Z,929.91
2018-05-03T02:11:13.482Z,929.91
2018-05-03T02:12:45.292Z,929.92
2018-05-03T02:14:17.144Z,929.90
2018-05-03T02:15:48.920Z,929.84
2018-05-03T02:17:20.737Z,929.80
2018-05-03T02:18:52.649Z,929.78
2018-05-03T02:20:24.372Z,929.81
2018-05-03T02:21:56.176Z,929.78
2018-05-03T02:23:27.990Z,929.77
2018-05-03T02:24:59.903Z,929.71
2018-05-03T02:26:31.619Z,929.72
2018-05-03T02:28:03.432Z,929.64
2018-05-03T02:29:35.245Z,929.62
2018-05-03T02:31:07.310Z,929.61
2018-05-03T02:32:38.874Z,929.57
2018-05-03T02:34:10.687Z,929.58
2018-05-03T02:35:42.501Z,929.61
2018-05-03T02:37:14.421Z,929.61
2018-05-03T02:38:46.127Z,929.62
2018-05-03T02:40:17.940Z,929.63
2018-05-03T02:41:49.755Z,929.61
2018-05-03T02:43:21.568Z,929.61
2018-05-03T02:44:53.381Z,929.60
2018-05-03T02:46:25.207Z,929.55
2018-05-03T02:47:57.011Z,929.53
2018-05-03T02:49:28.821Z,929.54
2018-05-03T02:51:00.635Z,929.53
2018-05-03T02:52:32.489Z,929.50
2018-05-03T02:54:04.260Z,929.51
2018-05-03T02:55:36.374Z,929.48
2018-05-03T02:57:07.891Z,929.43
2018-05-03T02:58:39.700Z,929.43
2018-05-03T03:00:11.514Z,929.38
2018-05-03T03:01:43.476Z,929.43
2018-05-03T03:03:15.139Z,929.41
2018-05-03T03:04:46.956Z,929.41
2018-05-03T03:06:18.765Z,929.36
2018-05-03T03:07:50.578Z,929.39
2018-05-03T03:09:22.390Z,929.36
2018-05-03T03:10:54.204Z,929.37
2018-05-03T03:12:26.015Z,929.35
2018-05-03T03:13:57.928Z,929.38
2018-05-03T03:15:29.655Z,929.42
2018-05-03T03:17:01.454Z,929.39
2018-05-03T03:18:33.266Z,929.41
2018-05-03T03:20:05.082Z,929.42
2018-05-03T03:21:36.892Z,929.38
2018-05-03T03:23:08.704Z,929.38
2018-05-03T03:24:40.517Z,929.38
2018-05-03T03:26:12.430Z,929.36
2018-05-03T03:27:44.143Z,929.33
2018-05-03T03:29:15.956Z,929.29
2018-05-03T03:30:47.768Z,929.24
2018-05-03T03:32:19.882Z,929.19
2018-05-03T03:33:51.423Z,929.24
2018-05-03T03:35:23.208Z,929.18
2018-05-03T03:36:55.019Z,929.17
2018-05-03T03:38:26.831Z,929.15
2018-05-03T03:39:58.644Z,929.10
2018-05-03T03:41:30.458Z,929.09
2018-05-03T03:43:02.280Z,929.06
2018-05-03T03:44:34.082Z,929.04
2018-05-03T03:46:05.895Z,929.02
2018-05-03T03:47:37.707Z,928.94
2018-05-03T03:49:09.521Z,928.99
2018-05-03T03:50:41.432Z,928.96
2018-05-03T03:52:13.144Z,928.94
2018-05-03T03:53:44.959Z,928.94
2018-05-03T03:55:16.770Z,928.96
2018-05-03T03:56:48.733Z,928.88
2018-05-03T03:58:20.395Z,928.83
2018-05-03T03:59:52.212Z,928.81
2018-05-03T04:01:24.021Z,928.79
2018-05-03T04:02:56.087Z,928.77
2018-05-03T04:04:27.645Z,928.76
2018-05-03T04:05:59.458Z,928.78
2018-05-03T04:07:31.296Z,928.72
2018-05-03T04:09:03.183Z,928.75
2018-05-03T04:10:34.896Z,928.74
2018-05-03T04:12:06.708Z,928.74
2018-05-03T04:13:38.521Z,928.73
2018-05-03T04:15:10.333Z,928.70
2018-05-03T04:16:42.145Z,928.72
2018-05-03T04:18:13.961Z,928.69
2018-05-03T04:19:45.770Z,928.64
2018-05-03T04:21:17.584Z,928.61
2018-05-03T04:22:49.396Z,928.61
2018-05-03T04:24:21.211Z,928.61
2018-05-03T04:25:53.021Z,928.60
2018-05-03T04:27:25.134Z,928.58
2018-05-03T04:28:56.645Z,928.54
2018-05-03T04:30:28.458Z,928.51
2018-05-03T04:32:00.287Z,928.51
2018-05-03T04:33:32.233Z,928.51
2018-05-03T04:35:03.896Z,928.47
2018-05-03T04:36:35.708Z,928.45
2018-05-03T04:38:07.520Z,928.44
2018-05-03T04:39:39.334Z,928.43
2018-05-03T04:41:11.145Z,928.41
2018-05-03T04:42:42.957Z,928.41
2018-05-03T04:44:14.770Z,928.34
2018-05-03T04:45:46.683Z,928.31
2018-05-03T04:47:18.395Z,928.29
2018-05-03T04:48:50.211Z,928.33
2018-05-03T04:50:22.019Z,928.37
2018-05-03T04:51:53.932Z,928.31
2018-05-03T04:53:25.643Z,928.35
2018-05-03T04:54:57.455Z,928.40
2018-05-03T04:56:29.267Z,928.38
2018-05-03T04:58:01.180Z,928.34
2018-05-03T04:59:32.892Z,928.40
2018-05-03T05:01:04.706Z,928.36
2018-05-03T05:02:36.517Z,928.39
2018-05-03T05:04:08.631Z,928.34
2018-05-03T05:05:40.140Z,928.34
2018-05-03T05:07:11.956Z,928.34
2018-05-03T05:08:43.765Z,928.32
2018-05-03T05:10:15.580Z,928.34
2018-05-03T05:11:47.390Z,928.32
2018-05-03T05:13:19.204Z,928.34
2018-05-03T05:14:51.015Z,928.39
2018-05-03T05:16:22.827Z,928.34
2018-05-03T05:17:54.702Z,928.30
2018-05-03T05:19:26.454Z,928.29
2018-05-03T05:20:58.264Z,928.30
2018-05-03T05:22:30.177Z,928.29
2018-05-03T05:24:01.889Z,928.30
2018-05-03T05:25:33.701Z,928.30
2018-05-03T05:27:05.517Z,928.26
2018-05-03T05:28:37.477Z,928.27
2018-05-03T05:30:09.139Z,928.28
2018-05-03T05:31:40.951Z,928.19
2018-05-03T05:33:12.763Z,928.22
2018-05-03T05:34:44.827Z,928.23
2018-05-03T05:36:16.388Z,928.19
2018-05-03T05:37:48.200Z,928.17
2018-05-03T05:39:20.057Z,928.16
2018-05-03T05:40:52.125Z,928.17
2018-05-03T05:42:23.637Z,928.16
2018-05-03T05:43:55.449Z,928.19
2018-05-03T05:45:27.262Z,928.16
2018-05-03T05:46:59.074Z,928.16
2018-05-03T05:48:30.888Z,928.23
2018-05-03T05:50:02.699Z,928.21
2018-05-03T05:51:34.511Z,928.26
2018-05-03T05:53:06.322Z,928.24
2018-05-03T05:54:38.135Z,928.20
2018-05-03T05:56:09.947Z,928.14
2018-05-03T05:57:41.760Z,928.14
2018-05-03T05:59:13.773Z,928.15
2018-05-03T06:00:45.384Z,928.13
2018-05-03T06:02:17.197Z,928.09
2018-05-03T06:03:49.009Z,928.08
2018-05-03T06:05:20.832Z,928.10
2018-05-03T06:06:52.637Z,928.14
2018-05-03T06:08:24.447Z,928.14
2018-05-03T06:09:56.334Z,928.15
2018-05-03T06:11:28.072Z,928.17
2018-05-03T06:12:59.885Z,928.19
2018-05-03T06:14:31.697Z,928.15
2018-05-03T06:16:03.581Z,928.18
2018-05-03T06:17:35.425Z,928.17
2018-05-03T06:19:07.135Z,928.17
2018-05-03T06:20:38.948Z,928.18
2018-05-03T06:22:10.775Z,928.17
2018-05-03T06:23:42.573Z,928.18
2018-05-03T06:25:14.387Z,928.19
2018-05-03T06:26:46.198Z,928.18
2018-05-03T06:28:18.012Z,928.22
2018-05-03T06:29:49.975Z,928.22
2018-05-03T06:31:21.637Z,928.22
2018-05-03T06:32:53.450Z,928.24
2018-05-03T06:34:25.295Z,928.22
2018-05-03T06:35:57.176Z,928.23
2018-05-03T06:37:28.888Z,928.17
2018-05-03T06:39:00.706Z,928.20
2018-05-03T06:40:32.515Z,928.23
2018-05-03T06:42:04.336Z,928.23
2018-05-03T06:43:36.143Z,928.20
2018-05-03T06:45:07.952Z,928.23
2018-05-03T06:46:39.770Z,928.23
2018-05-03T06:48:11.579Z,928.25
2018-05-03T06:49:43.394Z,928.19
2018-05-03T06:51:15.204Z,928.20
2018-05-03T06:52:47.017Z,928.15
2018-05-03T06:54:18.931Z,928.19
2018-05-03T06:55:50.643Z,928.14
2018-05-03T06:57:22.457Z,928.12
2018-05-03T06:58:54.276Z,928.14
2018-05-03T07:00:26.295Z,928.14
2018-05-03T07:01:57.895Z,928.13
2018-05-03T07:03:29.709Z,928.13
2018-05-03T07:05:01.521Z,928.15
2018-05-03T07:06:33.334Z,928.14
2018-05-03T07:08:05.148Z,928.17
2018-05-03T07:09:36.961Z,928.17
2018-05-03T07:11:08.774Z,928.19
2018-05-03T07:12:40.688Z,928.10
2018-05-03T07:14:12.401Z,928.16
2018-05-03T07:15:44.214Z,928.14
2018-05-03T07:17:16.029Z,928.15
2018-05-03T07:18:47.841Z,928.15
2018-05-03T07:20:19.655Z,928.16
2018-05-03T07:21:51.466Z,928.17
2018-05-03T07:23:23.279Z,928.10
2018-05-03T07:24:55.205Z,928.22
2018-05-03T07:26:26.905Z,928.19
2018-05-03T07:27:58.742Z,928.13
2018-05-03T07:29:30.604Z,928.20
2018-05-03T07:31:02.646Z,928.18
2018-05-03T07:32:34.165Z,928.17
2018-05-03T07:34:05.968Z,928.16
2018-05-03T07:35:37.782Z,928.25
2018-05-03T07:37:09.744Z,928.19
2018-05-03T07:38:41.406Z,928.26
2018-05-03T07:40:13.219Z,928.27
2018-05-03T07:41:45.034Z,928.29
2018-05-03T07:43:16.845Z,928.22
2018-05-03T07:44:48.658Z,928.28
2018-05-03T07:46:20.472Z,928.27
2018-05-03T07:47:52.312Z,928.30
2018-05-03T07:49:24.497Z,928.32
2018-05-03T07:50:55.908Z,928.33
2018-05-03T07:52:27.722Z,928.33
2018-05-03T07:53:59.535Z,928.35
2018-05-03T07:55:31.347Z,928.40
2018-05-03T07:57:03.161Z,928.37
2018-05-03T07:58:34.971Z,928.35
2018-05-03T08:00:06.799Z,928.37
2018-05-03T08:01:38.747Z,928.34
2018-05-03T08:03:10.414Z,928.39
2018-05-03T08:04:42.222Z,928.38
2018-05-03T08:06:14.035Z,928.40
2018-05-03T08:07:45.959Z,928.40
2018-05-03T08:09:17.661Z,928.42
2018-05-03T08:10:49.472Z,928.46
2018-05-03T08:12:21.285Z,928.46
2018-05-03T08:13:53.097Z,928.49
2018-05-03T08:15:24.910Z,928.50
2018-05-03T08:16:56.726Z,928.54
2018-05-03T08:18:28.536Z,928.51
2018-05-03T08:20:00.348Z,928.50
2018-05-03T08:21:32.161Z,928.54
2018-05-03T08:23:03.975Z,928.57
2018-05-03T08:24:35.786Z,928.57
2018-05-03T08:26:07.700Z,928.56
2018-05-03T08:27:39.413Z,928.62
2018-05-03T08:29:11.224Z,928.60
2018-05-03T08:30:43.039Z,928.63
2018-05-03T08:32:15.050Z,928.62
2018-05-03T08:33:46.662Z,928.64
2018-05-03T08:35:18.475Z,928.66
2018-05-03T08:36:50.288Z,928.67
2018-05-03T08:38:22.103Z,928.67
2018-05-03T08:39:53.913Z,928.71
2018-05-03T08:41:25.725Z,928.71
2018-05-03T08:42:57.538Z,928.71
2018-05-03T08:44:29.658Z,928.71
2018-05-03T08:46:01.164Z,928.80
2018-05-03T08:47:32.976Z,928.72
2018-05-03T08:49:04.808Z,928.78
2018-05-03T08:50:36.601Z,928.80
2018-05-03T08:52:08.413Z,928.85
2018-05-03T08:53:40.228Z,928.88
2018-05-03T08:55:12.039Z,928.87
2018-05-03T08:56:43.894Z,928.91
2018-05-03T08:58:15.664Z,928.93
2018-05-03T08:59:47.477Z,928.91
2018-05-03T09:01:19.329Z,928.94
2018-05-03T09:02:51.307Z,928.91
2018-05-03T09:04:22.918Z,928.98
2018-05-03T09:05:54.728Z,928.94
2018-05-03T09:07:26.542Z,928.96
2018-05-03T09:08:58.603Z,929.01
2018-05-03T09:10:30.165Z,929.04
2018-05-03T09:12:01.977Z,929.10
2018-05-03T09:13:33.791Z,929.12
2018-05-03T09:15:05.606Z,929.11
2018-05-03T09:16:37.418Z,929.15
2018-05-03T09:18:09.229Z,929.21
2018-05-03T09:19:41.039Z,929.21
2018-05-03T09:21:13.152Z,929.25
2018-05-03T09:22:44.665Z,929.30
2018-05-03T09:24:16.478Z,929.33
2018-05-03T09:25:48.289Z,929.30
2018-05-03T09:27:20.202Z,929.32
2018-05-03T09:28:51.917Z,929.32
2018-05-03T09:30:23.727Z,929.34
2018-05-03T09:31:55.607Z,929.33
2018-05-03T09:33:27.452Z,929.39
2018-05-03T09:34:59.164Z,929.43
2018-05-03T09:36:30.976Z,929.40
2018-05-03T09:38:02.789Z,929.46
2018-05-03T09:39:34.708Z,929.52
2018-05-03T09:41:06.413Z,929.50
2018-05-03T09:42:38.227Z,929.54
2018-05-03T09:44:10.039Z,929.57
2018-05-03T09:45:42.634Z,929.52
2018-05-03T09:47:13.665Z,929.60
2018-05-03T09:48:46.092Z,929.67
2018-05-03T09:50:17.309Z,929.64
2018-05-03T09:51:49.103Z,929.73
2018-05-03T09:53:20.922Z,929.75
2018-05-03T09:54:52.729Z,929.80
2018-05-03T09:56:24.542Z,929.80
2018-05-03T09:57:56.560Z,929.85
2018-05-03T09:59:28.220Z,929.84
2018-05-03T10:00:59.979Z,929.93
2018-05-03T10:02:31.877Z,929.94
2018-05-03T10:04:03.606Z,929.99
2018-05-03T10:05:35.419Z,930.02
2018-05-03T10:07:07.233Z,930.01
2018-05-03T10:08:39.050Z,930.03
2018-05-03T10:10:10.858Z,930.05
2018-05-03T10:11:42.671Z,930.10
2018-05-03T10:13:14.513Z,930.11
2018-05-03T10:14:46.297Z,930.15
2018-05-03T10:16:18.211Z,930.08
2018-05-03T10:17:49.928Z,930.14
2018-05-03T10:19:21.740Z,930.18
2018-05-03T10:20:53.548Z,930.24
2018-05-03T10:22:25.363Z,930.25
2018-05-03T10:23:57.175Z,930.26
2018-05-03T10:25:28.990Z,930.35
2018-05-03T10:27:01.108Z,930.44
2018-05-03T10:28:32.615Z,930.42
2018-05-03T10:30:04.434Z,930.43
2018-05-03T10:31:36.293Z,930.50
2018-05-03T10:33:08.055Z,930.52
2018-05-03T10:34:39.969Z,930.50
2018-05-03T10:36:11.834Z,930.55
2018-05-03T10:37:43.497Z,930.64
2018-05-03T10:39:15.309Z,930.62
2018-05-03T10:40:47.130Z,930.67
2018-05-03T10:42:18.974Z,930.59
2018-05-03T10:43:51.054Z,930.68
2018-05-03T10:45:22.564Z,930.70
2018-05-03T10:46:54.377Z,930.69
2018-05-03T10:48:26.191Z,930.69
2018-05-03T10:49:58.005Z,930.69
2018-05-03T10:51:29.820Z,930.66
2018-05-03T10:53:01.734Z,930.65
2018-05-03T10:54:33.448Z,930.66
2018-05-03T10:56:05.750Z,930.69
2018-05-03T10:59:08.926Z,930.76
2018-05-03T11:00:40.747Z,930.80
2018-05-03T11:02:12.557Z,930.83
2018-05-03T11:03:44.330Z,930.79
2018-05-03T11:05:16.232Z,930.84
2018-05-03T11:06:47.958Z,930.86
2018-05-03T11:08:19.772Z,930.86
2018-05-03T11:09:51.586Z,930.84
2018-05-03T11:11:23.505Z,930.86
2018-05-03T11:12:55.214Z,930.85
2018-05-03T11:14:27.033Z,930.88
2018-05-03T11:15:59.146Z,930.96
2018-05-03T11:17:30.674Z,930.89
2018-05-03T11:19:02.734Z,930.96
2018-05-03T11:20:34.284Z,930.94
2018-05-03T11:22:06.098Z,931.02
2018-05-03T11:23:37.914Z,931.00
2018-05-03T11:25:09.731Z,931.04
2018-05-03T11:26:41.543Z,931.04
2018-05-03T11:28:13.358Z,930.95
2018-05-03T11:29:45.373Z,931.04
2018-05-03T11:31:17.192Z,931.09
2018-05-03T11:32:49.106Z,931.00
2018-05-03T11:34:20.666Z,931.13
2018-05-03T11:35:52.433Z,931.06
2018-05-03T11:37:24.248Z,931.02
2018-05-03T11:38:56.067Z,931.03
2018-05-03T11:40:27.880Z,931.07
2018-05-03T11:41:59.696Z,931.11
2018-05-03T11:43:31.510Z,931.11
2018-05-03T11:45:03.324Z,931.13
2018-05-03T11:46:35.140Z,931.12
2018-05-03T11:48:07.056Z,931.09
2018-05-03T11:49:38.772Z,931.14
2018-05-03T11:51:10.588Z,931.17
2018-05-03T11:52:42.404Z,931.21
2018-05-03T11:54:14.219Z,931.33
2018-05-03T11:55:46.036Z,931.31
2018-05-03T11:57:17.852Z,931.28
2018-05-03T11:58:49.669Z,931.28
2018-05-03T12:00:21.600Z,931.33
2018-05-03T12:01:53.306Z,931.31
2018-05-03T12:03:25.124Z,931.33
2018-05-03T12:04:56.992Z,931.31
2018-05-03T12:06:28.863Z,931.36
2018-05-03T12:08:00.635Z,931.29
2018-05-03T12:09:32.400Z,931.34
2018-05-03T12:11:04.214Z,931.31
2018-05-03T12:12:36.032Z,931.32
2018-05-03T12:14:07.952Z,931.33
2018-05-03T12:15:39.668Z,931.35
2018-05-03T12:17:11.585Z,931.37
2018-05-03T12:18:43.303Z,931.43
2018-05-03T12:20:15.154Z,931.42
2018-05-03T12:21:46.939Z,931.47
2018-05-03T12:23:18.757Z,931.41
2018-05-03T12:24:50.690Z,931.39
2018-05-03T12:26:22.396Z,931.39
2018-05-03T12:27:54.519Z,931.43
2018-05-03T12:29:26.035Z,931.46
2018-05-03T12:30:57.853Z,931.49
2018-05-03T12:32:29.675Z,931.48
2018-05-03T12:34:01.493Z,931.44
2018-05-03T12:35:33.314Z,931.40
2018-05-03T12:37:05.134Z,931.37
2018-05-03T12:38:36.956Z,931.39
2018-05-03T12:40:08.777Z,931.41
2018-05-03T12:41:40.600Z,931.37
2018-05-03T12:43:12.522Z,931.34
2018-05-03T12:44:44.272Z,931.35
2018-05-03T12:46:16.169Z,931.38
2018-05-03T12:47:48.533Z,931.39
2018-05-03T12:49:20.101Z,931.35
2018-05-03T12:50:51.533Z,931.29
2018-05-03T12:52:23.387Z,931.29
2018-05-03T12:53:55.179Z,931.32
2018-05-03T12:55:27.179Z,931.29
2018-05-03T12:56:58.823Z,931.30
2018-05-03T12:58:30.645Z,931.28
2018-05-03T13:00:02.470Z,931.31
2018-05-03T13:01:34.493Z,931.25
2018-05-03T13:04:38.006Z,931.19
2018-05-03T13:06:09.837Z,931.20
2018-05-03T13:07:41.620Z,931.17
2018-05-03T13:09:13.412Z,931.08
2018-05-03T13:10:45.472Z,931.12
2018-05-03T13:12:17.112Z,931.20
2018-05-03T13:13:48.877Z,931.14
2018-05-03T13:15:20.700Z,931.11
2018-05-03T13:16:52.537Z,931.14
2018-05-03T13:18:24.853Z,931.10
2018-05-03T13:19:56.780Z,931.01
2018-05-03T13:21:28.767Z,931.08
2018-05-03T13:22:59.817Z,931.05
2018-05-03T13:24:31.640Z,931.00
2018-05-03T13:26:03.768Z,930.97
2018-05-03T13:27:35.287Z,930.93
2018-05-03T13:29:07.111Z,930.91
2018-05-03T13:30:38.935Z,930.86
2018-05-03T13:32:10.858Z,930.83
2018-05-03T13:33:42.622Z,930.84
2018-05-03T13:35:14.712Z,930.80
2018-05-03T13:36:46.229Z,930.85
2018-05-03T13:38:18.225Z,930.70
2018-05-03T13:39:49.895Z,930.72
2018-05-03T13:41:21.716Z,930.72
2018-05-03T13:42:53.627Z,930.68
2018-05-03T13:44:25.534Z,930.71
2018-05-03T13:45:57.303Z,930.67
2018-05-03T13:47:29.277Z,930.66
2018-05-03T13:49:01.123Z,930.63
2018-05-03T13:50:32.644Z,930.65
2018-05-03T13:52:05.039Z,930.63
2018-05-03T13:55:08.420Z,930.56
2018-05-03T13:59:43.590Z,930.51
2018-05-03T14:01:15.413Z,930.51
2018-05-03T14:02:47.641Z,930.51
2018-05-03T14:05:50.888Z,930.46
2018-05-03T14:07:23.277Z,930.46
2018-05-03T14:08:54.534Z,930.45
2018-05-03T14:10:26.364Z,930.48
2018-05-03T14:11:58.195Z,930.37
2018-05-03T14:13:30.009Z,930.30
2018-05-03T14:15:01.932Z,930.38
2018-05-03T14:16:33.859Z,930.32
2018-05-03T14:19:37.838Z,930.38
2018-05-03T14:21:09.196Z,930.34
2018-05-03T14:22:41.175Z,930.29
2018-05-03T14:24:12.829Z,930.28
2018-05-03T14:25:44.604Z,930.26
2018-05-03T14:27:16.543Z,930.25
2018-05-03T14:28:48.266Z,930.24
2018-05-03T14:30:20.082Z,930.21
2018-05-03T14:31:51.903Z,930.18
2018-05-03T14:33:23.829Z,930.16
2018-05-03T14:34:55.558Z,930.15
2018-05-03T14:37:59.207Z,930.10
2018-05-03T14:39:31.332Z,930.06
2018-05-03T14:41:02.853Z,930.01
2018-05-03T14:42:34.677Z,929.97
2018-05-03T14:45:38.387Z,930.00
2018-05-03T14:47:10.155Z,929.98
2018-05-03T14:48:41.979Z,929.95
2018-05-03T14:50:14.008Z,929.94
2018-05-03T14:51:45.730Z,929.88
2018-05-03T14:53:17.960Z,929.82
2018-05-03T14:54:49.585Z,929.81
2018-05-03T14:56:21.107Z,929.77
2018-05-03T14:57:52.944Z,929.75
2018-05-03T14:59:24.980Z,929.68
2018-05-03T15:00:56.664Z,929.68
2018-05-03T15:02:28.410Z,929.65
2018-05-03T15:04:00.241Z,929.84
2018-05-03T15:05:32.061Z,929.78
2018-05-03T15:07:04.110Z,929.72
2018-05-03T15:08:35.713Z,929.65
2018-05-03T15:11:39.668Z,929.55
2018-05-03T15:13:11.737Z,929.57
2018-05-03T15:14:43.550Z,929.53
2018-05-03T15:16:14.904Z,929.64
2018-05-03T15:17:46.671Z,929.56
2018-05-03T15:19:18.498Z,929.50
2018-05-03T15:20:50.327Z,929.59
2018-05-03T15:23:53.978Z,929.57
2018-05-03T15:25:25.805Z,929.44
2018-05-03T15:26:57.630Z,929.45
2018-05-03T15:28:29.456Z,929.41
2018-05-03T15:30:01.386Z,929.39
2018-05-03T15:31:33.640Z,929.35
2018-05-03T15:33:04.934Z,929.30
2018-05-03T15:34:36.759Z,929.42
2018-05-03T15:36:08.584Z,929.34
2018-05-03T15:37:40.410Z,929.35
2018-05-03T15:39:12.305Z,929.34
2018-05-03T15:40:44.060Z,929.32
2018-05-03T15:42:16.135Z,929.20
2018-05-03T15:43:47.712Z,929.22
2018-05-03T15:48:23.490Z,929.18
2018-05-03T15:49:55.088Z,929.22
2018-05-03T15:51:26.840Z,929.13
2018-05-03T15:52:58.665Z,929.12
2018-05-03T15:54:30.541Z,929.05
2018-05-03T15:56:02.318Z,928.89
2018-05-03T15:57:34.143Z,928.92
2018-05-03T15:59:05.969Z,928.94
2018-05-03T16:03:41.850Z,928.86
2018-05-03T16:05:13.477Z,928.90
2018-05-03T16:06:45.104Z,929.04
2018-05-03T16:08:16.929Z,928.99
2018-05-03T16:09:48.765Z,929.00
2018-05-03T16:11:20.730Z,928.97
2018-05-03T16:12:52.490Z,928.98
2018-05-03T16:14:24.555Z,928.86
2018-05-03T16:17:27.889Z,928.61
2018-05-03T16:20:31.580Z,928.72
2018-05-03T16:23:35.498Z,928.66
2018-05-03T16:25:07.553Z,928.64
2018-05-03T16:26:38.847Z,928.74
2018-05-03T16:28:10.676Z,928.71
2018-05-03T16:29:42.501Z,928.62
2018-05-03T16:31:14.326Z,928.52
2018-05-03T16:32:46.163Z,928.54
2018-05-03T16:34:17.980Z,928.54
2018-05-03T16:35:49.808Z,928.40
2018-05-03T16:38:53.764Z,928.41
2018-05-03T16:40:25.491Z,928.39
2018-05-03T16:41:57.219Z,928.40
2018-05-03T16:43:28.952Z,928.36
2018-05-03T16:45:00.773Z,928.33
2018-05-03T16:46:32.596Z,928.22
2018-05-03T16:49:36.250Z,928.23
2018-05-03T16:51:08.077Z,928.19
2018-05-03T16:52:39.903Z,928.19
2018-05-03T16:54:11.734Z,928.10
2018-05-03T16:58:47.513Z,927.86
2018-05-03T17:00:19.040Z,927.91
2018-05-03T17:01:50.863Z,927.82
2018-05-03T17:04:54.629Z,927.75
2018-05-03T17:06:26.342Z,927.83
2018-05-03T17:07:58.279Z,927.80
2018-05-03T17:09:29.993Z,927.76
2018-05-03T17:11:01.819Z,927.75
2018-05-03T17:12:33.645Z,927.78
2018-05-03T17:14:05.502Z,927.74
2018-05-03T17:15:37.499Z,927.74
2018-05-03T17:17:09.527Z,927.70
2018-05-03T17:18:40.956Z,927.65
2018-05-03T17:20:12.774Z,927.63
2018-05-03T17:21:44.603Z,927.61
2018-05-03T17:23:16.427Z,927.59
2018-05-03T17:24:48.252Z,927.62
2018-05-03T17:26:20.079Z,927.51
2018-05-03T17:27:52.217Z,927.56
2018-05-03T17:29:23.730Z,927.58
2018-05-03T17:33:59.514Z,927.45
2018-05-03T17:35:31.136Z,927.52
2018-05-03T17:37:02.866Z,927.51
2018-05-03T17:38:34.733Z,927.52
2018-05-03T17:40:06.515Z,927.49
2018-05-03T17:41:38.653Z,927.50
2018-05-03T17:43:10.207Z,927.52
2018-05-03T17:44:42.205Z,927.53
2018-05-03T17:46:13.820Z,927.55
2018-05-03T17:47:45.647Z,927.60
2018-05-03T17:49:17.706Z,927.63
2018-05-03T17:50:49.301Z,927.63
2018-05-03T17:52:21.125Z,927.66
2018-05-03T17:53:53.051Z,927.71
2018-05-03T17:55:24.778Z,927.63
2018-05-03T17:56:56.688Z,927.57
2018-05-03T17:58:28.973Z,927.56
2018-05-03T18:00:00.270Z,927.48
2018-05-03T18:01:32.079Z,927.47
2018-05-03T18:03:03.905Z,927.44
2018-05-03T18:04:35.739Z,927.34
2018-05-03T18:09:11.308Z,927.28
2018-05-03T18:10:43.099Z,927.36
2018-05-03T18:12:14.861Z,927.38
2018-05-03T18:13:46.682Z,927.42
2018-05-03T18:15:18.506Z,927.34
2018-05-03T18:16:50.333Z,927.37
2018-05-03T18:18:22.156Z,927.36
2018-05-03T18:19:53.980Z,927.33
2018-05-03T18:21:26.543Z,927.37
2018-05-03T18:22:57.629Z,927.35
2018-05-03T18:24:29.466Z,927.34
2018-05-03T18:26:01.278Z,927.36
2018-05-03T18:27:33.202Z,927.30
2018-05-03T18:29:04.926Z,927.34
2018-05-03T18:30:36.751Z,927.35
2018-05-03T18:32:08.576Z,927.32
2018-05-03T18:33:40.400Z,927.30
2018-05-03T18:35:12.225Z,927.28
2018-05-03T18:36:44.048Z,927.32
2018-05-03T18:38:15.872Z,927.30
2018-05-03T18:39:47.697Z,927.29
2018-05-03T18:41:19.521Z,927.27
2018-05-03T18:42:51.345Z,927.28
2018-05-03T18:44:23.169Z,927.31
2018-05-03T18:45:54.997Z,927.22
2018-05-03T18:47:26.819Z,927.27
2018-05-03T18:48:58.657Z,927.24
2018-05-03T18:50:30.468Z,927.26
2018-05-03T18:52:02.328Z,927.22
2018-05-03T18:53:34.115Z,927.24
2018-05-03T18:55:05.948Z,927.30
2018-05-03T18:56:37.765Z,927.28
2018-05-03T18:58:09.588Z,927.24
2018-05-03T18:59:41.716Z,927.30
2018-05-03T19:01:13.310Z,927.27
2018-05-03T19:02:45.073Z,927.28
2018-05-03T19:04:16.884Z,927.29
2018-05-03T19:05:48.708Z,927.31
2018-05-03T19:07:20.531Z,927.29
2018-05-03T19:08:52.359Z,927.28
2018-05-03T19:10:24.188Z,927.31
2018-05-03T19:11:56.094Z,927.33
2018-05-03T19:13:27.828Z,927.35
2018-05-03T19:16:31.487Z,927.36
2018-05-03T19:18:03.837Z,927.40
2018-05-03T19:19:35.131Z,927.39
2018-05-03T19:21:07.093Z,927.39
2018-05-03T19:22:38.871Z,927.38
2018-05-03T19:24:10.680Z,927.41
2018-05-03T19:25:42.418Z,927.37
2018-05-03T19:27:14.241Z,927.36
2018-05-03T19:28:46.066Z,927.34
2018-05-03T19:30:17.888Z,927.37
2018-05-03T19:31:49.749Z,927.40
2018-05-03T19:33:21.540Z,927.38
2018-05-03T19:34:53.415Z,927.36
2018-05-03T19:36:25.181Z,927.38
2018-05-03T19:37:57.129Z,927.41
2018-05-03T19:39:28.828Z,927.40
2018-05-03T19:41:00.659Z,927.43
2018-05-03T19:42:32.479Z,927.41
2018-05-03T19:44:04.298Z,927.41
2018-05-03T19:45:36.124Z,927.48
2018-05-03T19:47:07.944Z,927.46
2018-05-03T19:48:39.767Z,927.43